Time;durP1;ratioP1;P1;durP2;ratioP2;P2;SDS_P1;SDS_P2;PMS_P1;PMS_P2;Temp;Humidity;BMP_temperature;BMP_pressure;BME280_temperature;BME280_humidity;BME280_pressure;Samples;Min_cycle;Max_cycle;Signal;HPM_P1;HPM_P2
2022/10/11 00:00:43;;;;;;;;;;;;;;;16.09;100.00;99647.13;5040452;28;19944;-45
2022/10/11 00:03:08;;;;;;;;;;;;;;;16.11;100.00;99640.09;5040372;28;19917;-44
2022/10/11 00:05:33;;;;;;;;;;;;;;;16.01;100.00;99655.25;5039695;28;20035;-45
2022/10/11 00:07:59;;;;;;;;;;;;;;;15.94;100.00;99663.38;5040220;28;19921;-44
2022/10/11 00:10:24;;;;;;;;;;;;;;;15.86;100.00;99659.34;5039506;28;20324;-44
2022/10/11 00:12:51;;;;;;;;;;;;;;;15.88;100.00;99654.94;5022379;28;19920;-43
2022/10/11 00:15:17;;;;;;;;;;;;;;;15.94;100.00;99656.41;5022327;28;20000;-45
2022/10/11 00:17:43;;;;;;;;;;;;;;;15.85;100.00;99655.09;5022030;28;19959;-44
2022/10/11 00:20:08;;;;;;;;;;;;;;;15.80;100.00;99662.22;5038312;28;19964;-45
2022/10/11 00:22:34;;;;;;;;;;;;;;;15.78;100.00;99664.06;5020271;28;19921;-46
2022/10/11 00:25:00;;;;;;;;;;;;;;;15.57;100.00;99680.50;5020919;28;19973;-45
2022/10/11 00:27:25;;;;;;;;;;;;;;;15.45;100.00;99674.91;5037209;28;19916;-44
2022/10/11 00:29:50;;;;;;;;;;;;;;;15.53;100.00;99681.53;5019549;28;19916;-44
2022/10/11 00:32:16;;;;;;;;;;;;;;;15.59;100.00;99683.88;5037961;28;19952;-46
2022/10/11 00:34:41;;;;;;;;;;;;;;;15.66;100.00;99685.28;5038136;28;19982;-45
2022/10/11 00:37:06;;;;;;;;;;;;;;;15.65;100.00;99683.63;5038890;28;20841;-44
2022/10/11 00:39:31;;;;;;;;;;;;;;;15.63;100.00;99685.44;5038485;28;19927;-44
2022/10/11 00:41:57;;;;;;;;;;;;;;;15.66;100.00;99695.69;5038158;28;20016;-44
2022/10/11 00:44:23;;;;;;;;;;;;;;;15.62;100.00;99694.13;5038772;28;19921;-44
2022/10/11 00:46:54;;;;;;;;;;;;;;;15.60;100.00;99696.78;5038435;28;20296;-44
2022/10/11 00:49:26;;;;;;;;;;;;;;;15.61;100.00;99695.03;5020900;28;19920;-44
2022/10/11 00:51:52;;;;;;;;;;;;;;;15.67;100.00;99687.00;5020092;28;20050;-44
2022/10/11 00:54:18;;;;;;;;;;;;;;;15.69;100.00;99693.81;5021043;28;20024;-44
2022/10/11 00:56:44;;;;;;;;;;;;;;;15.69;100.00;99696.41;5020938;28;20004;-45
2022/10/11 00:59:11;;;;;;;;;;;;;;;15.62;100.00;99694.97;5020190;28;19928;-44
2022/10/11 01:01:36;;;;;;;;;;;;;;;15.64;100.00;99702.69;5021227;28;20695;-44
2022/10/11 01:04:01;;;;;;;;;;;;;;;15.66;100.00;99691.31;5020477;28;19921;-44
2022/10/11 01:06:26;;;;;;;;;;;;;;;15.59;100.00;99699.44;5020424;28;19917;-44
2022/10/11 01:08:52;;;;;;;;;;;;;;;15.41;100.00;99707.06;5004239;28;19932;-44
2022/10/11 01:11:18;;;;;;;;;;;;;;;15.63;100.00;99701.84;5038895;28;19956;-45
2022/10/11 01:13:50;;;;;;;;;;;;;;;15.57;100.00;99701.25;5020486;28;19925;-44
2022/10/11 01:16:16;;;;;;;;;;;;;;;15.67;100.00;99705.19;5020873;28;19971;-44
2022/10/11 01:18:47;;;;;;;;;;;;;;;15.56;100.00;99704.78;5037302;28;20370;-44
2022/10/11 01:21:15;;;;;;;;;;;;;;;15.61;100.00;99703.66;5037561;28;19928;-44
2022/10/11 01:23:46;;;;;;;;;;;;;;;15.61;100.00;99708.03;5036797;28;19927;-44
2022/10/11 01:26:20;;;;;;;;;;;;;;;15.64;100.00;99702.69;5037824;28;19948;-44
2022/10/11 01:28:45;;;;;;;;;;;;;;;15.58;100.00;99702.97;5037428;28;19921;-43
2022/10/11 01:31:16;;;;;;;;;;;;;;;15.57;100.00;99701.25;5038085;28;19943;-44
2022/10/11 01:33:44;;;;;;;;;;;;;;;15.57;100.00;99701.25;5020656;28;19925;-44
2022/10/11 01:36:12;;;;;;;;;;;;;;;15.61;100.00;99708.03;5020601;28;20019;-44
2022/10/11 01:38:38;;;;;;;;;;;;;;;15.59;100.00;99707.22;5037468;28;20459;-44
2022/10/11 01:41:05;;;;;;;;;;;;;;;15.60;100.00;99702.00;5037506;28;19921;-44
2022/10/11 01:43:30;;;;;;;;;;;;;;;15.56;100.00;99712.56;5020458;28;19927;-44
2022/10/11 01:45:56;;;;;;;;;;;;;;;15.56;100.00;99716.00;5040113;28;19921;-44
2022/10/11 01:48:21;;;;;;;;;;;;;;;15.53;100.00;99710.94;5023267;28;19927;-44
2022/10/11 01:50:48;;;;;;;;;;;;;;;15.54;100.00;99709.19;5041856;28;19925;-44
2022/10/11 01:53:43;;;;;;;;;;;;;;;15.51;100.00;99717.94;5061588;28;20388;-44
2022/10/11 01:56:13;;;;;;;;;;;;;;;15.53;100.00;99718.72;5044009;28;19921;-44
2022/10/11 01:58:47;;;;;;;;;;;;;;;15.48;100.00;99718.03;5043574;28;20691;-44
2022/10/11 02:01:22;;;;;;;;;;;;;;;15.43;100.00;99722.59;5061258;28;19920;-44
2022/10/11 02:03:57;;;;;;;;;;;;;;;15.37;100.00;99715.91;5043872;28;20011;-44
2022/10/11 02:06:38;;;;;;;;;;;;;;;15.43;100.00;99720.84;5044278;28;19966;-44
2022/10/11 02:09:14;;;;;;;;;;;;;;;15.46;100.00;99722.44;5043033;28;19916;-44
2022/10/11 02:11:40;;;;;;;;;;;;;;;15.41;100.00;99721.81;5043477;28;19939;-44
2022/10/11 02:14:07;;;;;;;;;;;;;;;15.40;100.00;99728.75;5043405;28;20606;-44
2022/10/11 02:16:34;;;;;;;;;;;;;;;15.42;100.00;99719.16;5043419;28;20371;-45
2022/10/11 02:18:59;;;;;;;;;;;;;;;15.38;100.00;99722.78;5042949;28;19958;-44
2022/10/11 02:21:25;;;;;;;;;;;;;;;15.20;100.00;99724.34;5061005;28;21313;-44
2022/10/11 02:23:52;;;;;;;;;;;;;;;15.07;100.00;99725.72;5040827;28;19974;-44
2022/10/11 02:26:17;;;;;;;;;;;;;;;15.16;100.00;99724.53;5026170;28;19921;-45
2022/10/11 02:28:42;;;;;;;;;;;;;;;15.11;100.00;99723.88;5061076;28;20410;-43
2022/10/11 02:31:07;;;;;;;;;;;;;;;15.16;100.00;99727.97;5060499;28;19920;-44
2022/10/11 02:33:35;;;;;;;;;;;;;;;15.08;100.00;99724.00;5043505;28;19920;-43
2022/10/11 02:36:02;;;;;;;;;;;;;;;15.03;100.00;99722.44;5043009;28;19931;-44
2022/10/11 02:38:28;;;;;;;;;;;;;;;15.04;100.00;99729.28;5060555;28;19920;-44
2022/10/11 02:40:55;;;;;;;;;;;;;;;15.00;100.00;99727.72;5041692;28;20587;-44
2022/10/11 02:43:23;;;;;;;;;;;;;;;14.95;100.00;99734.00;5042064;28;19964;-43
2022/10/11 02:45:50;;;;;;;;;;;;;;;14.84;100.00;99732.63;5059855;28;19943;-44
2022/10/11 02:48:15;;;;;;;;;;;;;;;14.83;100.00;99740.50;5041566;28;19924;-57
2022/10/11 02:50:40;;;;;;;;;;;;;;;14.73;100.00;99739.13;5042367;28;19928;-45
2022/10/11 02:53:06;;;;;;;;;;;;;;;14.69;100.00;99738.41;5042565;28;19916;-44
2022/10/11 02:55:31;;;;;;;;;;;;;;;14.80;100.00;99743.19;5060482;28;19920;-44
2022/10/11 02:57:56;;;;;;;;;;;;;;;14.82;100.00;99746.56;5041668;28;20495;-44
2022/10/11 03:00:22;;;;;;;;;;;;;;;14.85;100.00;99746.47;5059215;28;19916;-44
2022/10/11 03:02:47;;;;;;;;;;;;;;;14.87;100.00;99742.06;5042724;28;20281;-44
2022/10/11 03:05:12;;;;;;;;;;;;;;;14.85;100.00;99746.47;5060378;28;19920;-44
2022/10/11 03:07:37;;;;;;;;;;;;;;;14.83;100.00;99748.28;5041734;28;19927;-44
2022/10/11 03:10:03;;;;;;;;;;;;;;;14.86;100.00;99753.34;5040283;28;19920;-44
2022/10/11 03:12:28;;;;;;;;;;;;;;;14.85;100.00;99749.06;5059269;28;19951;-44
2022/10/11 03:14:54;;;;;;;;;;;;;;;14.88;100.00;99759.31;5059783;28;19924;-44
2022/10/11 03:17:19;;;;;;;;;;;;;;;14.87;100.00;99752.44;5060776;28;19917;-44
2022/10/11 03:19:44;;;;;;;;;;;;;;;14.92;100.00;99754.88;5059166;28;20448;-45
2022/10/11 03:22:09;;;;;;;;;;;;;;;14.87;100.00;99756.78;5038931;28;19932;-44
2022/10/11 03:24:34;;;;;;;;;;;;;;;14.85;100.00;99760.28;5060761;28;19927;-44
2022/10/11 03:27:00;;;;;;;;;;;;;;;14.89;100.00;99766.19;5060388;28;19923;-44
2022/10/11 03:29:25;;;;;;;;;;;;;;;14.64;100.00;99767.09;5060286;28;20361;-44
2022/10/11 03:31:50;;;;;;;;;;;;;;;14.61;100.00;99772.38;5060741;28;20285;-44
2022/10/11 03:34:15;;;;;;;;;;;;;;;14.70;100.00;99770.38;5060279;28;19928;-44
2022/10/11 03:36:41;;;;;;;;;;;;;;;14.45;100.00;99773.81;5060381;28;19973;-44
2022/10/11 03:39:06;;;;;;;;;;;;;;;14.62;100.00;99781.88;5060113;28;19917;-44
2022/10/11 03:41:31;;;;;;;;;;;;;;;14.67;100.00;99773.94;5060830;28;20011;-44
2022/10/11 03:43:56;;;;;;;;;;;;;;;14.73;100.00;99775.44;5059563;28;19951;-43
2022/10/11 03:46:21;;;;;;;;;;;;;;;14.66;100.00;99780.00;5060086;28;19920;-44
2022/10/11 03:48:47;;;;;;;;;;;;;;;14.67;100.00;99780.88;5059742;28;20410;-44
2022/10/11 03:51:13;;;;;;;;;;;;;;;14.77;100.00;99777.03;5041785;28;19926;-43
2022/10/11 03:53:38;;;;;;;;;;;;;;;14.38;100.00;99785.28;5059410;28;19932;-43
2022/10/11 03:56:03;;;;;;;;;;;;;;;14.57;100.00;99785.50;5041606;28;19924;-44
2022/10/11 03:58:29;;;;;;;;;;;;;;;14.57;100.00;99791.56;5058402;28;20007;-45
2022/10/11 04:00:54;;;;;;;;;;;;;;;14.55;100.00;99790.78;5060409;28;19924;-43
2022/10/11 04:03:20;;;;;;;;;;;;;;;14.66;100.00;99790.38;5061150;28;19920;-44
2022/10/11 04:05:45;;;;;;;;;;;;;;;14.44;100.00;99787.69;5060236;28;19926;-44
2022/10/11 04:08:10;;;;;;;;;;;;;;;14.46;100.00;99798.84;5058640;28;20436;-44
2022/10/11 04:10:35;;;;;;;;;;;;;;;14.41;100.00;99804.19;5058547;28;20276;-44
2022/10/11 04:13:00;;;;;;;;;;;;;;;14.41;100.00;99791.22;5059395;28;20312;-45
2022/10/11 04:15:26;;;;;;;;;;;;;;;14.40;100.00;99804.22;5057984;28;19920;-44
2022/10/11 04:17:51;;;;;;;;;;;;;;;14.37;100.00;99804.34;5028369;28;19924;-44
2022/10/11 04:20:16;;;;;;;;;;;;;;;14.35;100.00;99806.97;5040528;28;19924;-44
2022/10/11 04:22:41;;;;;;;;;;;;;;;14.40;100.00;99807.66;5058012;28;20365;-44
2022/10/11 04:25:07;;;;;;;;;;;;;;;14.45;100.00;99812.69;5059599;28;19923;-44
2022/10/11 04:27:33;;;;;;;;;;;;;;;14.34;100.00;99815.63;5040955;28;19921;-44
2022/10/11 04:29:58;;;;;;;;;;;;;;;14.28;100.00;99813.28;5058680;28;19950;-44
2022/10/11 04:32:23;;;;;;;;;;;;;;;14.37;100.00;99817.31;5059646;28;19920;-45
2022/10/11 04:34:48;;;;;;;;;;;;;;;14.26;100.00;99816.81;5059518;28;19967;-44
2022/10/11 04:37:14;;;;;;;;;;;;;;;14.31;100.00;99820.09;5059351;28;19924;-43
2022/10/11 04:39:39;;;;;;;;;;;;;;;14.22;100.00;99827.25;5058628;28;19920;-43
2022/10/11 04:42:04;;;;;;;;;;;;;;;14.21;100.00;99823.00;5059554;28;19921;-43
2022/10/11 04:44:30;;;;;;;;;;;;;;;14.20;100.00;99829.06;5059717;28;19916;-43
2022/10/11 04:46:55;;;;;;;;;;;;;;;14.01;100.00;99831.44;5058999;28;19974;-43
2022/10/11 04:49:20;;;;;;;;;;;;;;;14.01;100.00;99831.44;5057985;28;20437;-43
2022/10/11 04:51:45;;;;;;;;;;;;;;;14.05;100.00;99834.78;5058177;28;20284;-43
2022/10/11 04:54:11;;;;;;;;;;;;;;;14.16;100.00;99837.84;5058797;28;19920;-43
2022/10/11 04:56:36;;;;;;;;;;;;;;;14.13;100.00;99831.91;5040436;28;19920;-43
2022/10/11 04:59:01;;;;;;;;;;;;;;;14.08;100.00;99837.25;5057658;28;20523;-43
2022/10/11 05:01:26;;;;;;;;;;;;;;;14.04;100.00;99833.06;5056282;28;20326;-43
2022/10/11 05:03:51;;;;;;;;;;;;;;;13.92;100.00;99838.66;5058497;28;19916;-43
2022/10/11 05:06:17;;;;;;;;;;;;;;;13.67;100.00;99852.38;5057864;28;19965;-43
2022/10/11 05:08:42;;;;;;;;;;;;;;;13.88;100.00;99844.81;5058076;28;19917;-43
2022/10/11 05:11:09;;;;;;;;;;;;;;;13.81;100.00;99842.41;5058088;28;19921;-43
2022/10/11 05:13:35;;;;;;;;;;;;;;;13.72;100.00;99842.72;5040465;28;19920;-43
2022/10/11 05:16:00;;;;;;;;;;;;;;;13.85;100.00;99840.59;5057910;28;19938;-44
2022/10/11 05:18:26;;;;;;;;;;;;;;;13.88;100.00;99837.06;5057468;28;20399;-44
2022/10/11 05:21:01;;;;;;;;;;;;;;;13.80;100.00;99845.91;5042110;28;19966;-44
2022/10/11 05:23:27;;;;;;;;;;;;;;;13.70;100.00;99854.84;5041697;28;19964;-43
2022/10/11 05:25:52;;;;;;;;;;;;;;;13.70;100.00;99849.69;5061089;28;20001;-44
2022/10/11 05:28:18;;;;;;;;;;;;;;;13.63;100.00;99850.75;5060934;28;19916;-44
2022/10/11 05:30:43;;;;;;;;;;;;;;;13.46;100.00;99851.28;5061258;28;19916;-43
2022/10/11 05:33:08;;;;;;;;;;;;;;;13.55;100.00;99856.19;5029477;28;19969;-43
2022/10/11 05:35:33;;;;;;;;;;;;;;;13.40;100.00;99854.06;5061391;28;20487;-44
2022/10/11 05:37:58;;;;;;;;;;;;;;;13.33;100.00;99861.16;5061810;28;20360;-43
2022/10/11 05:40:24;;;;;;;;;;;;;;;13.48;100.00;99853.81;5060088;28;20325;-43
2022/10/11 05:42:49;;;;;;;;;;;;;;;13.39;100.00;99858.38;5061199;28;19920;-43
2022/10/11 05:45:14;;;;;;;;;;;;;;;13.35;100.00;99874.88;5060853;28;19924;-43
2022/10/11 05:47:39;;;;;;;;;;;;;;;13.30;100.00;99868.16;4996747;28;1852120;-43
2022/10/11 05:50:05;;;;;;;;;;;;;;;13.17;100.00;99875.38;5028251;28;19927;-43
2022/10/11 05:52:30;;;;;;;;;;;;;;;13.24;100.00;99874.31;5061211;28;19917;-43
2022/10/11 05:54:55;;;;;;;;;;;;;;;13.08;100.00;99876.50;5061382;28;19939;-43
2022/10/11 05:57:21;;;;;;;;;;;;;;;13.10;100.00;99879.88;5061566;28;19916;-43
2022/10/11 05:59:46;;;;;;;;;;;;;;;13.10;100.00;99882.47;5061595;28;19927;-43
2022/10/11 06:02:11;;;;;;;;;;;;;;;13.18;100.00;99882.25;5062075;28;19916;-43
2022/10/11 06:04:36;;;;;;;;;;;;;;;13.21;100.00;99884.75;5062116;28;19920;-43
2022/10/11 06:07:02;;;;;;;;;;;;;;;13.30;100.00;99894.88;5061157;28;19916;-43
2022/10/11 06:09:28;;;;;;;;;;;;;;;13.38;100.00;99890.31;5043837;28;19917;-42
2022/10/11 06:11:53;;;;;;;;;;;;;;;13.37;100.00;99898.97;5062357;28;19916;-43
2022/10/11 06:14:18;;;;;;;;;;;;;;;13.30;100.00;99897.47;5062444;28;20766;-43
2022/10/11 06:16:44;;;;;;;;;;;;;;;13.38;100.00;99892.91;5062264;28;19927;-43
2022/10/11 06:19:09;;;;;;;;;;;;;;;13.34;100.00;99896.50;5060653;28;19925;-42
2022/10/11 06:21:34;;;;;;;;;;;;;;;13.29;100.00;99898.34;5061574;28;19956;-43
2022/10/11 06:24:00;;;;;;;;;;;;;;;13.39;100.00;99899.78;5059773;28;19943;-43
2022/10/11 06:26:26;;;;;;;;;;;;;;;13.21;100.00;99907.19;5061497;28;19939;-43
2022/10/11 06:28:51;;;;;;;;;;;;;;;13.50;100.00;99909.81;5061166;28;19912;-43
2022/10/11 06:31:16;;;;;;;;;;;;;;;13.55;100.00;99909.69;5043189;28;19921;-43
2022/10/11 06:33:41;;;;;;;;;;;;;;;13.59;100.00;99908.69;5043453;28;19925;-43
2022/10/11 06:36:09;;;;;;;;;;;;;;;13.59;100.00;99911.28;5061070;28;19924;-43
2022/10/11 06:38:34;;;;;;;;;;;;;;;13.67;100.00;99914.50;5060607;28;20324;-43
2022/10/11 06:41:13;;;;;;;;;;;;;;;13.67;100.00;99924.84;5060759;28;19920;-43
2022/10/11 06:43:38;;;;;;;;;;;;;;;13.63;100.00;99925.81;5043476;28;19919;-43
2022/10/11 06:46:03;;;;;;;;;;;;;;;13.70;100.00;99927.34;5061588;28;19920;-43
2022/10/11 06:48:30;;;;;;;;;;;;;;;13.67;100.00;99930.03;5060606;28;19942;-43
2022/10/11 06:50:57;;;;;;;;;;;;;;;13.67;100.00;99936.94;5043242;28;19994;-43
2022/10/11 06:53:22;;;;;;;;;;;;;;;13.75;100.00;99935.84;5061806;28;19912;-43
2022/10/11 06:55:47;;;;;;;;;;;;;;;13.81;100.00;99940.81;5043358;28;19920;-43
2022/10/11 06:58:12;;;;;;;;;;;;;;;14.08;100.00;99940.84;5061059;28;19917;-43
2022/10/11 07:00:37;;;;;;;;;;;;;;;14.20;100.00;99927.50;5061758;28;19916;-43
2022/10/11 07:03:03;;;;;;;;;;;;;;;14.20;100.00;99950.81;5061053;28;19920;-43
2022/10/11 07:05:30;;;;;;;;;;;;;;;14.25;100.00;99955.00;5061434;28;20007;-43
2022/10/11 07:07:55;;;;;;;;;;;;;;;14.43;100.00;99944.06;5060134;28;19927;-43
2022/10/11 07:10:21;;;;;;;;;;;;;;;14.49;100.00;99949.03;5060379;28;19920;-43
2022/10/11 07:12:46;;;;;;;;;;;;;;;14.61;100.00;99948.66;5061234;28;19966;-43
2022/10/11 07:15:11;;;;;;;;;;;;;;;14.95;100.00;99949.28;5061193;28;19946;-43
2022/10/11 07:17:36;;;;;;;;;;;;;;;15.11;100.00;99947.00;5061009;28;20276;-43
2022/10/11 07:20:02;;;;;;;;;;;;;;;15.44;100.00;99945.78;5060231;28;19967;-43
2022/10/11 07:22:27;;;;;;;;;;;;;;;15.42;100.00;99946.75;5058080;28;19916;-43
2022/10/11 07:24:52;;;;;;;;;;;;;;;15.57;100.00;99955.69;5061424;28;19920;-43
2022/10/11 07:27:20;;;;;;;;;;;;;;;15.83;100.00;99953.00;5061118;28;20568;-44
2022/10/11 07:29:45;;;;;;;;;;;;;;;16.14;100.00;99956.16;5060519;28;20096;-44
2022/10/11 07:32:11;;;;;;;;;;;;;;;16.29;100.00;99956.38;5060911;28;19912;-43
2022/10/11 07:34:36;;;;;;;;;;;;;;;16.41;100.00;99955.03;5058276;28;19917;-44
2022/10/11 07:37:01;;;;;;;;;;;;;;;15.98;100.00;99964.53;5026356;28;19920;-43
2022/10/11 07:39:27;;;;;;;;;;;;;;;15.94;100.00;99964.72;5059690;28;20919;-44
2022/10/11 07:41:52;;;;;;;;;;;;;;;16.21;100.00;99958.44;5060422;28;19924;-44
2022/10/11 07:44:17;;;;;;;;;;;;;;;16.44;100.00;99964.47;5060103;28;19923;-44
2022/10/11 07:46:43;;;;;;;;;;;;;;;16.54;100.00;99958.00;5029122;28;19920;-44
2022/10/11 07:49:08;;;;;;;;;;;;;;;16.30;100.00;99965.03;5058653;28;19967;-44
2022/10/11 07:51:33;;;;;;;;;;;;;;;16.34;100.00;99961.41;5060237;28;19921;-45
2022/10/11 07:53:58;;;;;;;;;;;;;;;16.21;100.00;99968.81;5027938;28;20625;-44
2022/10/11 07:56:27;;;;;;;;;;;;;;;16.39;100.00;99974.22;5060109;28;20249;-44
2022/10/11 07:58:53;;;;;;;;;;;;;;;16.12;100.00;99979.59;5059362;28;19928;-44
2022/10/11 08:01:19;;;;;;;;;;;;;;;16.35;100.00;99975.22;5060276;28;19978;-45
2022/10/11 08:03:44;;;;;;;;;;;;;;;16.48;100.00;99982.47;5060409;28;20011;-44
2022/10/11 08:06:10;;;;;;;;;;;;;;;16.42;100.00;99981.88;5060352;28;19924;-44
2022/10/11 08:08:35;;;;;;;;;;;;;;;16.47;100.00;99983.41;5059478;28;20301;-45
2022/10/11 08:11:00;;;;;;;;;;;;;;;16.88;100.00;99980.03;5059243;28;19951;-46
2022/10/11 08:13:26;;;;;;;;;;;;;;;16.94;100.00;99982.34;5059577;28;21245;-46
2022/10/11 08:15:51;;;;;;;;;;;;;;;17.20;100.00;99975.19;5059607;28;19921;-45
2022/10/11 08:18:16;;;;;;;;;;;;;;;17.37;100.00;99977.03;5041136;28;19955;-45
2022/10/11 08:20:42;;;;;;;;;;;;;;;17.45;100.00;99974.97;5059128;28;19952;-46
2022/10/11 08:23:10;;;;;;;;;;;;;;;17.63;100.00;99981.94;5057303;28;19967;-46
2022/10/11 08:25:39;;;;;;;;;;;;;;;17.74;100.00;99982.28;5059372;28;19979;-47
2022/10/11 08:28:05;;;;;;;;;;;;;;;17.86;100.00;99980.03;5059824;28;19917;-46
2022/10/11 08:30:30;;;;;;;;;;;;;;;18.28;100.00;99969.34;5041027;28;19921;-45
2022/10/11 08:32:55;;;;;;;;;;;;;;;17.71;100.00;99973.75;5059751;28;19920;-46
2022/10/11 08:35:23;;;;;;;;;;;;;;;18.46;100.00;99974.63;5057654;28;19924;-46
2022/10/11 08:37:48;;;;;;;;;;;;;;;18.47;100.00;99977.13;5059813;28;19926;-45
2022/10/11 08:40:14;;;;;;;;;;;;;;;18.48;100.00;99980.59;5057733;28;19924;-45
2022/10/11 08:42:42;;;;;;;;;;;;;;;18.33;100.00;99975.19;5040832;28;19920;-47
2022/10/11 08:45:26;;;;;;;;;;;;;;;18.47;100.00;99976.28;5040864;28;19974;-45
2022/10/11 08:48:11;;;;;;;;;;;;;;;18.44;100.00;99973.84;5041724;28;19917;-45
2022/10/11 08:50:39;;;;;;;;;;;;;;;18.57;100.00;99972.31;5058626;28;20049;-45
2022/10/11 08:53:07;;;;;;;;;;;;;;;18.48;100.00;99964.94;5060051;28;19912;-45
2022/10/11 08:55:43;;;;;;;;;;;;;;;18.79;100.00;99967.75;5043826;28;19939;-45
2022/10/11 08:58:11;;;;;;;;;;;;;;;19.27;100.00;99970.50;5045950;28;19917;-45
2022/10/11 09:00:37;;;;;;;;;;;;;;;18.77;100.00;99971.34;5044603;28;19920;-45
2022/10/11 09:03:28;;;;;;;;;;;;;;;18.64;100.00;99984.13;5045397;28;20327;-45
2022/10/11 09:06:06;;;;;;;;;;;;;;;18.41;100.00;99984.44;5054020;28;20669;-46
2022/10/11 09:08:34;;;;;;;;;;;;;;;18.49;100.00;99990.94;5062777;28;20499;-44
2022/10/11 09:11:08;;;;;;;;;;;;;;;19.33;100.00;99987.63;5063314;28;20005;-48
2022/10/11 09:13:50;;;;;;;;;;;;;;;17.16;100.00;99997.91;5063033;28;19963;-46
2022/10/11 09:16:28;;;;;;;;;;;;;;;18.21;100.00;99986.22;5044886;28;19921;-46
2022/10/11 09:19:08;;;;;;;;;;;;;;;17.09;100.00;100004.28;5062117;28;19939;-48
2022/10/11 09:21:40;;;;;;;;;;;;;;;18.45;100.00;99983.34;5063204;28;20006;-47
2022/10/11 09:24:38;;;;;;;;;;;;;;;19.43;100.00;99975.75;5042186;28;19916;-47
2022/10/11 09:27:09;;;;;;;;;;;;;;;19.56;100.00;99968.97;5018368;28;19920;-48
2022/10/11 09:29:57;;;;;;;;;;;;;;;19.35;100.00;99983.19;5045297;28;19920;-45
2022/10/11 09:32:22;;;;;;;;;;;;;;;18.62;100.00;99979.91;5051382;28;19921;-48
2022/10/11 09:34:52;;;;;;;;;;;;;;;19.64;100.00;99982.47;5028454;28;19939;-47
2022/10/11 09:37:26;;;;;;;;;;;;;;;19.04;100.00;99987.38;5044765;28;19917;-47
2022/10/11 09:40:15;;;;;;;;;;;;;;;17.85;100.00;99999.22;5061935;28;19920;-46
2022/10/11 09:42:40;;;;;;;;;;;;;;;18.01;100.00;100004.56;5024263;28;19978;-46
2022/10/11 09:45:12;;;;;;;;;;;;;;;19.08;100.00;99982.84;5062160;28;19922;-46
2022/10/11 09:47:37;;;;;;;;;;;;;;;17.58;100.00;99996.06;5061619;28;19920;-46
2022/10/11 09:50:04;;;;;;;;;;;;;;;17.42;100.00;100001.94;5061697;28;19927;-47
2022/10/11 09:52:29;;;;;;;;;;;;;;;18.36;100.00;100001.13;5062143;28;19967;-46
2022/10/11 09:54:59;;;;;;;;;;;;;;;18.76;100.00;99982.69;5044631;28;20422;-47
2022/10/11 09:57:25;;;;;;;;;;;;;;;18.08;100.00;99990.31;5045108;28;20497;-47
2022/10/11 09:59:57;;;;;;;;;;;;;;;18.52;100.00;99987.34;5043432;28;19916;-46
2022/10/11 10:02:22;;;;;;;;;;;;;;;19.27;100.00;99977.50;5044825;28;19920;-46
2022/10/11 10:05:00;;;;;;;;;;;;;;;19.41;100.00;99980.25;5061856;28;19917;-46
2022/10/11 10:07:25;;;;;;;;;;;;;;;18.70;100.00;99991.66;5060123;28;20027;-46
2022/10/11 10:09:51;;;;;;;;;;;;;;;19.00;100.00;99986.69;5061373;28;20003;-46
2022/10/11 10:12:21;;;;;;;;;;;;;;;20.19;100.00;99977.78;5061761;28;19974;-46
2022/10/11 10:14:53;;;;;;;;;;;;;;;19.96;100.00;99969.44;5043542;28;19924;-47
2022/10/11 10:17:18;;;;;;;;;;;;;;;20.61;100.00;99971.06;5042730;28;20383;-46
2022/10/11 10:19:48;;;;;;;;;;;;;;;19.72;100.00;99965.56;5043773;28;19920;-47
2022/10/11 10:22:17;;;;;;;;;;;;;;;20.07;100.00;99958.41;5058334;28;19923;-47
2022/10/11 10:24:42;;;;;;;;;;;;;;;21.04;100.00;99963.28;5043944;28;20037;-47
2022/10/11 10:27:15;;;;;;;;;;;;;;;21.25;100.00;99964.59;5044039;28;20385;-47
2022/10/11 10:29:41;;;;;;;;;;;;;;;20.75;100.00;99971.06;5061755;28;20412;-47
2022/10/11 10:32:13;;;;;;;;;;;;;;;21.28;100.00;99974.06;5044124;28;19912;-46
2022/10/11 10:34:40;;;;;;;;;;;;;;;19.87;100.00;99961.28;5042034;28;20337;-47
2022/10/11 10:37:26;;;;;;;;;;;;;;;19.11;100.00;99980.94;5044353;28;20361;-48
2022/10/11 10:39:53;;;;;;;;;;;;;;;20.32;100.00;99981.41;5043662;28;19917;-47
2022/10/11 10:42:19;;;;;;;;;;;;;;;20.48;100.00;99973.50;5027281;28;20401;-47
2022/10/11 10:44:52;;;;;;;;;;;;;;;20.36;100.00;99969.81;5044244;28;19924;-48
2022/10/11 10:47:19;;;;;;;;;;;;;;;19.62;100.00;99984.31;5060560;28;20013;-47
2022/10/11 10:49:45;;;;;;;;;;;;;;;18.53;100.00;100002.06;5061722;28;20427;-47
2022/10/11 10:52:10;;;;;;;;;;;;;;;19.79;100.00;99987.81;5044079;28;19955;-47
2022/10/11 10:54:44;;;;;;;;;;;;;;;18.74;100.00;99995.78;5061982;28;19963;-47
2022/10/11 10:57:11;;;;;;;;;;;;;;;19.00;100.00;99973.63;5061545;28;19923;-49
2022/10/11 10:59:55;;;;;;;;;;;;;;;19.61;100.00;99982.66;5061268;28;20019;-48
2022/10/11 11:02:22;;;;;;;;;;;;;;;19.29;100.00;99983.50;5061845;28;20369;-50
2022/10/11 11:04:50;;;;;;;;;;;;;;;19.19;100.00;99978.75;5061515;28;19921;-46
2022/10/11 11:07:45;;;;;;;;;;;;;;;18.34;100.00;99987.31;5044137;28;19924;-48
2022/10/11 11:10:20;;;;;;;;;;;;;;;19.71;100.00;99976.97;5043191;28;19920;-47
2022/10/11 11:12:54;;;;;;;;;;;;;;;20.19;100.00;99967.31;5043367;28;19927;-46
2022/10/11 11:15:27;;;;;;;;;;;;;;;20.39;97.61;99959.19;5043928;28;19940;-44
2022/10/11 11:18:10;;;;;;;;;;;;;;;20.45;89.42;99945.72;5042776;28;19943;-48
2022/10/11 11:20:41;;;;;;;;;;;;;;;20.88;83.95;99943.25;5042179;28;19920;-47
2022/10/11 11:23:26;;;;;;;;;;;;;;;21.91;89.05;99950.03;5058241;28;19974;-47
2022/10/11 11:26:09;;;;;;;;;;;;;;;21.60;88.80;99948.53;5059749;28;19916;-47
2022/10/11 11:28:40;;;;;;;;;;;;;;;22.11;83.97;99940.88;5060544;28;19928;-47
2022/10/11 11:31:10;;;;;;;;;;;;;;;21.71;87.37;99946.06;5061605;28;19939;-46
2022/10/11 11:33:42;;;;;;;;;;;;;;;21.91;91.72;99955.28;5043522;28;19925;-47
2022/10/11 11:36:11;;;;;;;;;;;;;;;19.36;83.75;99935.22;5042872;28;19958;-46
2022/10/11 11:38:44;;;;;;;;;;;;;;;20.93;91.53;99958.69;5042497;28;19917;-46
2022/10/11 11:41:29;;;;;;;;;;;;;;;21.55;84.94;99934.00;5061105;28;20093;-49
2022/10/11 11:44:02;;;;;;;;;;;;;;;22.03;82.60;99926.56;5042813;28;19956;-46
2022/10/11 11:46:29;;;;;;;;;;;;;;;22.83;86.58;99940.56;5041619;28;19916;-46
2022/10/11 11:48:55;;;;;;;;;;;;;;;22.64;82.73;99933.06;5041772;28;20020;-46
2022/10/11 11:51:20;;;;;;;;;;;;;;;22.61;80.23;99924.56;5042440;28;19999;-47
2022/10/11 11:53:48;;;;;;;;;;;;;;;22.50;81.25;99922.66;5042570;28;20313;-47
2022/10/11 11:56:16;;;;;;;;;;;;;;;21.43;87.20;99938.25;5060693;28;20007;-47
2022/10/11 11:58:41;;;;;;;;;;;;;;;22.34;89.30;99941.19;5059990;28;19969;-47
2022/10/11 12:01:26;;;;;;;;;;;;;;;20.42;89.01;99932.84;5053056;28;19924;-47
2022/10/11 12:03:53;;;;;;;;;;;;;;;19.38;92.32;99941.22;5058191;28;20003;-47
2022/10/11 12:06:23;;;;;;;;;;;;;;;19.94;95.54;99949.53;5041864;28;19962;-47
2022/10/11 12:09:08;;;;;;;;;;;;;;;20.41;92.00;99931.16;5059145;28;20017;-47
2022/10/11 12:11:37;;;;;;;;;;;;;;;21.86;92.60;99927.66;5041282;28;19920;-46
2022/10/11 12:14:13;;;;;;;;;;;;;;;20.49;84.01;99920.25;5057902;28;20633;-46
2022/10/11 12:16:58;;;;;;;;;;;;;;;19.85;86.02;99919.53;5041136;28;19964;-47
2022/10/11 12:19:24;;;;;;;;;;;;;;;22.06;88.10;99924.59;5059070;28;19916;-46
2022/10/11 12:21:49;;;;;;;;;;;;;;;23.19;83.65;99910.06;5041118;28;19920;-49
2022/10/11 12:24:14;;;;;;;;;;;;;;;23.05;82.41;99912.81;5041173;28;20027;-47
2022/10/11 12:26:43;;;;;;;;;;;;;;;21.61;84.05;99916.13;5060244;28;20349;-47
2022/10/11 12:29:18;;;;;;;;;;;;;;;23.54;86.47;99920.75;5040125;28;19921;-48
2022/10/11 12:31:47;;;;;;;;;;;;;;;23.71;82.94;99906.38;5059565;28;19920;-47
2022/10/11 12:34:15;;;;;;;;;;;;;;;24.52;80.87;99912.75;5059845;28;19925;-47
2022/10/11 12:36:40;;;;;;;;;;;;;;;23.85;83.91;99913.28;5060038;28;19916;-46
2022/10/11 12:39:15;;;;;;;;;;;;;;;21.53;80.64;99915.78;5058928;28;19982;-48
2022/10/11 12:41:46;;;;;;;;;;;;;;;22.50;80.56;99902.47;5059922;28;19924;-46